sensor_id;sensor_type;location;lat;lon;timestamp;temperature;humidity
971;DHT22;28939;45.540;-122.632;2022-07-29T00:01:55;35.20;65.40
971;DHT22;28939;45.540;-122.632;2022-07-29T00:04:28;35.20;64.50
971;DHT22;28939;45.540;-122.632;2022-07-29T00:06:59;35.20;64.20
971;DHT22;28939;45.540;-122.632;2022-07-29T00:09:30;35.20;67.10
971;DHT22;28939;45.540;-122.632;2022-07-29T00:12:18;35.20;66.40
971;DHT22;28939;45.540;-122.632;2022-07-29T00:14:54;35.20;66.30
971;DHT22;28939;45.540;-122.632;2022-07-29T00:17:25;35.20;66.40
971;DHT22;28939;45.540;-122.632;2022-07-29T00:19:58;35.20;67.90
971;DHT22;28939;45.540;-122.632;2022-07-29T00:22:28;35.30;67.30
971;DHT22;28939;45.540;-122.632;2022-07-29T00:24:59;35.10;66.90
971;DHT22;28939;45.540;-122.632;2022-07-29T00:27:31;35.00;68.00
971;DHT22;28939;45.540;-122.632;2022-07-29T00:30:06;34.90;67.90
971;DHT22;28939;45.540;-122.632;2022-07-29T00:32:37;34.80;68.40
971;DHT22;28939;45.540;-122.632;2022-07-29T00:35:11;34.70;68.50
971;DHT22;28939;45.540;-122.632;2022-07-29T00:38:00;34.80;69.90
971;DHT22;28939;45.540;-122.632;2022-07-29T00:40:31;35.00;69.50
971;DHT22;28939;45.540;-122.632;2022-07-29T00:43:01;35.10;70.00
971;DHT22;28939;45.540;-122.632;2022-07-29T00:45:32;35.10;69.50
971;DHT22;28939;45.540;-122.632;2022-07-29T00:48:04;35.10;68.70
971;DHT22;28939;45.540;-122.632;2022-07-29T00:50:39;35.00;69.20
971;DHT22;28939;45.540;-122.632;2022-07-29T00:53:12;34.80;69.70
971;DHT22;28939;45.540;-122.632;2022-07-29T00:55:43;34.80;69.90
971;DHT22;28939;45.540;-122.632;2022-07-29T00:58:13;34.80;70.50
971;DHT22;28939;45.540;-122.632;2022-07-29T01:00:44;34.90;70.90
971;DHT22;28939;45.540;-122.632;2022-07-29T01:03:15;34.90;70.90
971;DHT22;28939;45.540;-122.632;2022-07-29T01:05:48;34.80;70.70
971;DHT22;28939;45.540;-122.632;2022-07-29T01:08:19;34.80;70.60
971;DHT22;28939;45.540;-122.632;2022-07-29T01:10:51;34.80;70.60
971;DHT22;28939;45.540;-122.632;2022-07-29T01:13:23;34.80;70.30
971;DHT22;28939;45.540;-122.632;2022-07-29T01:15:58;34.60;71.20
971;DHT22;28939;45.540;-122.632;2022-07-29T01:18:31;34.60;71.90
971;DHT22;28939;45.540;-122.632;2022-07-29T01:24:19;34.60;73.20
971;DHT22;28939;45.540;-122.632;2022-07-29T01:27:06;34.60;73.80
971;DHT22;28939;45.540;-122.632;2022-07-29T01:29:49;34.50;72.90
971;DHT22;28939;45.540;-122.632;2022-07-29T01:32:24;34.40;73.60
971;DHT22;28939;45.540;-122.632;2022-07-29T01:35:02;34.30;73.20
971;DHT22;28939;45.540;-122.632;2022-07-29T01:37:38;34.20;73.30
971;DHT22;28939;45.540;-122.632;2022-07-29T01:40:14;34.10;74.20
971;DHT22;28939;45.540;-122.632;2022-07-29T01:42:51;34.00;74.90
971;DHT22;28939;45.540;-122.632;2022-07-29T01:45:28;34.00;73.50
971;DHT22;28939;45.540;-122.632;2022-07-29T01:48:03;34.00;73.70
971;DHT22;28939;45.540;-122.632;2022-07-29T01:50:44;34.00;74.20
971;DHT22;28939;45.540;-122.632;2022-07-29T01:53:23;34.00;73.80
971;DHT22;28939;45.540;-122.632;2022-07-29T01:56:05;34.00;73.60
971;DHT22;28939;45.540;-122.632;2022-07-29T01:58:38;34.00;74.70
971;DHT22;28939;45.540;-122.632;2022-07-29T02:01:13;33.90;73.30
971;DHT22;28939;45.540;-122.632;2022-07-29T02:03:46;33.90;75.40
971;DHT22;28939;45.540;-122.632;2022-07-29T02:06:20;33.90;74.80
971;DHT22;28939;45.540;-122.632;2022-07-29T02:08:53;33.80;73.80
971;DHT22;28939;45.540;-122.632;2022-07-29T02:11:25;33.70;73.40
971;DHT22;28939;45.540;-122.632;2022-07-29T02:13:57;33.60;74.40
971;DHT22;28939;45.540;-122.632;2022-07-29T02:16:31;33.50;74.40
971;DHT22;28939;45.540;-122.632;2022-07-29T02:19:05;33.40;75.60
971;DHT22;28939;45.540;-122.632;2022-07-29T02:21:38;33.30;76.30
971;DHT22;28939;45.540;-122.632;2022-07-29T02:24:11;33.20;76.40
971;DHT22;28939;45.540;-122.632;2022-07-29T02:26:43;33.10;77.80
971;DHT22;28939;45.540;-122.632;2022-07-29T02:29:15;33.00;77.50
971;DHT22;28939;45.540;-122.632;2022-07-29T02:31:49;32.90;77.80
971;DHT22;28939;45.540;-122.632;2022-07-29T02:34:21;32.80;77.60
971;DHT22;28939;45.540;-122.632;2022-07-29T02:36:55;32.70;78.70
971;DHT22;28939;45.540;-122.632;2022-07-29T02:39:27;32.70;79.80
971;DHT22;28939;45.540;-122.632;2022-07-29T02:42:03;32.60;80.40
971;DHT22;28939;45.540;-122.632;2022-07-29T02:44:35;32.60;79.60
971;DHT22;28939;45.540;-122.632;2022-07-29T02:47:14;32.60;79.70
971;DHT22;28939;45.540;-122.632;2022-07-29T02:49:56;32.60;80.40
971;DHT22;28939;45.540;-122.632;2022-07-29T02:52:31;32.50;79.60
971;DHT22;28939;45.540;-122.632;2022-07-29T02:55:18;32.50;80.60
971;DHT22;28939;45.540;-122.632;2022-07-29T02:57:54;32.50;80.90
971;DHT22;28939;45.540;-122.632;2022-07-29T03:00:28;32.30;82.50
971;DHT22;28939;45.540;-122.632;2022-07-29T03:03:04;32.10;82.80
971;DHT22;28939;45.540;-122.632;2022-07-29T03:05:37;31.90;82.10
971;DHT22;28939;45.540;-122.632;2022-07-29T03:08:11;31.80;83.20
971;DHT22;28939;45.540;-122.632;2022-07-29T03:10:44;31.70;83.20
971;DHT22;28939;45.540;-122.632;2022-07-29T03:13:16;31.60;83.70
971;DHT22;28939;45.540;-122.632;2022-07-29T03:15:48;31.50;84.40
971;DHT22;28939;45.540;-122.632;2022-07-29T03:18:20;31.40;85.70
971;DHT22;28939;45.540;-122.632;2022-07-29T03:20:52;31.30;86.00
971;DHT22;28939;45.540;-122.632;2022-07-29T03:23:23;31.20;86.60
971;DHT22;28939;45.540;-122.632;2022-07-29T03:26:03;31.10;88.00
971;DHT22;28939;45.540;-122.632;2022-07-29T03:28:34;31.00;88.00
971;DHT22;28939;45.540;-122.632;2022-07-29T03:31:06;30.90;87.80
971;DHT22;28939;45.540;-122.632;2022-07-29T03:33:39;30.80;88.80
971;DHT22;28939;45.540;-122.632;2022-07-29T03:36:09;30.70;90.20
971;DHT22;28939;45.540;-122.632;2022-07-29T03:38:41;30.70;89.20
971;DHT22;28939;45.540;-122.632;2022-07-29T03:41:13;30.80;88.60
971;DHT22;28939;45.540;-122.632;2022-07-29T03:43:50;30.80;88.80
971;DHT22;28939;45.540;-122.632;2022-07-29T03:46:23;30.80;89.10
971;DHT22;28939;45.540;-122.632;2022-07-29T03:48:58;30.80;90.60
971;DHT22;28939;45.540;-122.632;2022-07-29T03:51:31;30.60;90.40
971;DHT22;28939;45.540;-122.632;2022-07-29T03:54:02;30.50;90.60
971;DHT22;28939;45.540;-122.632;2022-07-29T03:56:39;30.50;90.30
971;DHT22;28939;45.540;-122.632;2022-07-29T03:59:11;30.50;90.50
971;DHT22;28939;45.540;-122.632;2022-07-29T04:01:45;30.40;90.90
971;DHT22;28939;45.540;-122.632;2022-07-29T04:04:18;30.20;91.30
971;DHT22;28939;45.540;-122.632;2022-07-29T04:06:49;30.00;91.90
971;DHT22;28939;45.540;-122.632;2022-07-29T04:09:19;29.90;92.40
971;DHT22;28939;45.540;-122.632;2022-07-29T04:11:50;29.70;92.40
971;DHT22;28939;45.540;-122.632;2022-07-29T04:14:30;29.60;93.10
971;DHT22;28939;45.540;-122.632;2022-07-29T04:17:02;29.50;92.80
971;DHT22;28939;45.540;-122.632;2022-07-29T04:19:35;29.40;93.50
971;DHT22;28939;45.540;-122.632;2022-07-29T04:22:06;29.40;93.00
971;DHT22;28939;45.540;-122.632;2022-07-29T04:24:37;29.30;93.20
971;DHT22;28939;45.540;-122.632;2022-07-29T04:27:11;29.30;92.90
971;DHT22;28939;45.540;-122.632;2022-07-29T04:29:42;29.10;93.30
971;DHT22;28939;45.540;-122.632;2022-07-29T04:32:24;29.10;93.40
971;DHT22;28939;45.540;-122.632;2022-07-29T04:34:56;29.10;93.50
971;DHT22;28939;45.540;-122.632;2022-07-29T04:37:27;29.00;93.60
971;DHT22;28939;45.540;-122.632;2022-07-29T04:39:58;29.10;94.50
971;DHT22;28939;45.540;-122.632;2022-07-29T04:42:29;29.00;94.00
971;DHT22;28939;45.540;-122.632;2022-07-29T04:44:59;28.90;93.90
971;DHT22;28939;45.540;-122.632;2022-07-29T04:47:34;29.00;95.20
971;DHT22;28939;45.540;-122.632;2022-07-29T04:50:08;28.80;96.00
971;DHT22;28939;45.540;-122.632;2022-07-29T04:52:38;28.70;95.50
971;DHT22;28939;45.540;-122.632;2022-07-29T04:55:10;28.70;95.70
971;DHT22;28939;45.540;-122.632;2022-07-29T04:57:41;28.80;96.20
971;DHT22;28939;45.540;-122.632;2022-07-29T05:00:13;28.70;96.90
971;DHT22;28939;45.540;-122.632;2022-07-29T05:02:44;28.50;97.60
971;DHT22;28939;45.540;-122.632;2022-07-29T05:05:16;28.40;99.00
971;DHT22;28939;45.540;-122.632;2022-07-29T05:07:47;28.30;99.30
971;DHT22;28939;45.540;-122.632;2022-07-29T05:10:18;28.10;99.90
971;DHT22;28939;45.540;-122.632;2022-07-29T05:12:49;28.00;99.90
971;DHT22;28939;45.540;-122.632;2022-07-29T05:15:20;27.90;99.90
971;DHT22;28939;45.540;-122.632;2022-07-29T05:17:51;27.80;99.90
971;DHT22;28939;45.540;-122.632;2022-07-29T05:20:24;27.70;99.90
971;DHT22;28939;45.540;-122.632;2022-07-29T05:22:57;27.70;99.90
971;DHT22;28939;45.540;-122.632;2022-07-29T05:25:28;27.70;99.90
971;DHT22;28939;45.540;-122.632;2022-07-29T05:28:11;27.60;99.90
971;DHT22;28939;45.540;-122.632;2022-07-29T05:30:42;27.50;99.90
971;DHT22;28939;45.540;-122.632;2022-07-29T05:33:13;27.40;99.90
971;DHT22;28939;45.540;-122.632;2022-07-29T05:36:05;27.40;99.90
971;DHT22;28939;45.540;-122.632;2022-07-29T05:38:36;27.40;99.90
971;DHT22;28939;45.540;-122.632;2022-07-29T05:41:07;27.40;99.90
971;DHT22;28939;45.540;-122.632;2022-07-29T05:43:38;27.50;99.90
971;DHT22;28939;45.540;-122.632;2022-07-29T05:46:09;27.50;99.90
971;DHT22;28939;45.540;-122.632;2022-07-29T05:48:40;27.50;99.90
971;DHT22;28939;45.540;-122.632;2022-07-29T05:51:12;27.30;99.90
971;DHT22;28939;45.540;-122.632;2022-07-29T05:53:43;27.20;99.90
971;DHT22;28939;45.540;-122.632;2022-07-29T05:56:14;27.10;99.90
971;DHT22;28939;45.540;-122.632;2022-07-29T05:58:45;27.00;99.90
971;DHT22;28939;45.540;-122.632;2022-07-29T06:01:15;26.90;99.90
971;DHT22;28939;45.540;-122.632;2022-07-29T06:03:46;26.80;99.90
971;DHT22;28939;45.540;-122.632;2022-07-29T06:06:19;26.70;99.90
971;DHT22;28939;45.540;-122.632;2022-07-29T06:08:50;26.70;99.90
971;DHT22;28939;45.540;-122.632;2022-07-29T06:11:20;26.60;99.90
971;DHT22;28939;45.540;-122.632;2022-07-29T06:13:51;26.40;99.90
971;DHT22;28939;45.540;-122.632;2022-07-29T06:16:22;26.40;99.90
971;DHT22;28939;45.540;-122.632;2022-07-29T06:18:57;26.30;99.90
971;DHT22;28939;45.540;-122.632;2022-07-29T06:21:29;26.30;99.90
971;DHT22;28939;45.540;-122.632;2022-07-29T06:24:00;26.20;99.90
971;DHT22;28939;45.540;-122.632;2022-07-29T06:26:30;26.10;99.90
971;DHT22;28939;45.540;-122.632;2022-07-29T06:29:06;26.10;99.90
971;DHT22;28939;45.540;-122.632;2022-07-29T06:31:38;26.00;99.90
971;DHT22;28939;45.540;-122.632;2022-07-29T06:34:09;25.90;99.90
971;DHT22;28939;45.540;-122.632;2022-07-29T06:36:42;25.90;99.90
971;DHT22;28939;45.540;-122.632;2022-07-29T06:39:13;25.90;99.90
971;DHT22;28939;45.540;-122.632;2022-07-29T06:41:47;25.90;99.90
971;DHT22;28939;45.540;-122.632;2022-07-29T06:44:19;25.80;99.90
971;DHT22;28939;45.540;-122.632;2022-07-29T06:46:49;25.80;99.90
971;DHT22;28939;45.540;-122.632;2022-07-29T06:49:21;25.70;99.90
971;DHT22;28939;45.540;-122.632;2022-07-29T06:51:54;25.60;99.90
971;DHT22;28939;45.540;-122.632;2022-07-29T06:54:25;25.60;99.90
971;DHT22;28939;45.540;-122.632;2022-07-29T06:56:56;25.50;99.90
971;DHT22;28939;45.540;-122.632;2022-07-29T06:59:27;25.50;99.90
971;DHT22;28939;45.540;-122.632;2022-07-29T07:02:02;25.50;99.90
971;DHT22;28939;45.540;-122.632;2022-07-29T07:04:33;25.40;99.90
971;DHT22;28939;45.540;-122.632;2022-07-29T07:07:06;25.30;99.90
971;DHT22;28939;45.540;-122.632;2022-07-29T07:09:36;25.20;99.90
971;DHT22;28939;45.540;-122.632;2022-07-29T07:12:08;25.30;99.90
971;DHT22;28939;45.540;-122.632;2022-07-29T07:14:40;25.30;99.90
971;DHT22;28939;45.540;-122.632;2022-07-29T07:17:10;25.20;99.90
971;DHT22;28939;45.540;-122.632;2022-07-29T07:19:41;25.10;99.90
971;DHT22;28939;45.540;-122.632;2022-07-29T07:22:15;25.00;99.90
971;DHT22;28939;45.540;-122.632;2022-07-29T07:24:46;25.00;99.90
971;DHT22;28939;45.540;-122.632;2022-07-29T07:27:16;25.00;99.90
971;DHT22;28939;45.540;-122.632;2022-07-29T07:29:47;24.90;99.90
971;DHT22;28939;45.540;-122.632;2022-07-29T07:32:18;24.90;99.90
971;DHT22;28939;45.540;-122.632;2022-07-29T07:34:49;24.80;99.90
971;DHT22;28939;45.540;-122.632;2022-07-29T07:37:21;24.80;99.90
971;DHT22;28939;45.540;-122.632;2022-07-29T07:39:53;24.70;99.90
971;DHT22;28939;45.540;-122.632;2022-07-29T07:42:24;24.70;99.90
971;DHT22;28939;45.540;-122.632;2022-07-29T07:44:55;24.60;99.90
971;DHT22;28939;45.540;-122.632;2022-07-29T07:47:40;24.60;99.90
971;DHT22;28939;45.540;-122.632;2022-07-29T07:50:12;24.50;99.90
971;DHT22;28939;45.540;-122.632;2022-07-29T07:52:51;24.50;99.90
971;DHT22;28939;45.540;-122.632;2022-07-29T07:55:23;24.50;99.90
971;DHT22;28939;45.540;-122.632;2022-07-29T07:57:54;24.40;99.90
971;DHT22;28939;45.540;-122.632;2022-07-29T08:00:25;24.40;99.90
971;DHT22;28939;45.540;-122.632;2022-07-29T08:02:56;24.40;99.90
971;DHT22;28939;45.540;-122.632;2022-07-29T08:05:27;24.30;99.90
971;DHT22;28939;45.540;-122.632;2022-07-29T08:07:59;24.30;99.90
971;DHT22;28939;45.540;-122.632;2022-07-29T08:10:30;24.20;99.90
971;DHT22;28939;45.540;-122.632;2022-07-29T08:13:18;24.20;99.90
971;DHT22;28939;45.540;-122.632;2022-07-29T08:15:49;24.20;99.90
971;DHT22;28939;45.540;-122.632;2022-07-29T08:18:26;24.10;99.90
971;DHT22;28939;45.540;-122.632;2022-07-29T08:20:57;24.00;99.90
971;DHT22;28939;45.540;-122.632;2022-07-29T08:23:30;24.00;99.90
971;DHT22;28939;45.540;-122.632;2022-07-29T08:26:14;24.00;99.90
971;DHT22;28939;45.540;-122.632;2022-07-29T08:28:45;24.00;99.90
971;DHT22;28939;45.540;-122.632;2022-07-29T08:31:18;23.90;99.90
971;DHT22;28939;45.540;-122.632;2022-07-29T08:33:49;23.90;99.90
971;DHT22;28939;45.540;-122.632;2022-07-29T08:36:20;23.90;99.90
971;DHT22;28939;45.540;-122.632;2022-07-29T08:38:52;23.90;99.90
971;DHT22;28939;45.540;-122.632;2022-07-29T08:41:23;23.80;99.90
971;DHT22;28939;45.540;-122.632;2022-07-29T08:43:55;23.80;99.90
971;DHT22;28939;45.540;-122.632;2022-07-29T08:46:25;23.80;99.90
971;DHT22;28939;45.540;-122.632;2022-07-29T08:48:56;23.80;99.90
971;DHT22;28939;45.540;-122.632;2022-07-29T08:51:27;23.80;99.90
971;DHT22;28939;45.540;-122.632;2022-07-29T08:54:00;23.80;99.90
971;DHT22;28939;45.540;-122.632;2022-07-29T08:56:31;23.70;99.90
971;DHT22;28939;45.540;-122.632;2022-07-29T08:59:03;23.50;99.90
971;DHT22;28939;45.540;-122.632;2022-07-29T09:01:38;23.50;99.90
971;DHT22;28939;45.540;-122.632;2022-07-29T09:04:18;23.50;99.90
971;DHT22;28939;45.540;-122.632;2022-07-29T09:06:51;23.40;99.90
971;DHT22;28939;45.540;-122.632;2022-07-29T09:09:26;23.40;99.90
971;DHT22;28939;45.540;-122.632;2022-07-29T09:11:57;23.40;99.90
971;DHT22;28939;45.540;-122.632;2022-07-29T09:14:29;23.40;99.90
971;DHT22;28939;45.540;-122.632;2022-07-29T09:16:59;23.40;99.90
971;DHT22;28939;45.540;-122.632;2022-07-29T09:19:32;23.30;99.90
971;DHT22;28939;45.540;-122.632;2022-07-29T09:22:05;23.30;99.90
971;DHT22;28939;45.540;-122.632;2022-07-29T09:24:42;23.30;99.90
971;DHT22;28939;45.540;-122.632;2022-07-29T09:27:23;23.20;99.90
971;DHT22;28939;45.540;-122.632;2022-07-29T09:29:59;23.20;99.90
971;DHT22;28939;45.540;-122.632;2022-07-29T09:32:30;23.10;99.90
971;DHT22;28939;45.540;-122.632;2022-07-29T09:35:17;23.10;99.90
971;DHT22;28939;45.540;-122.632;2022-07-29T09:37:49;23.00;99.90
971;DHT22;28939;45.540;-122.632;2022-07-29T09:40:22;23.00;99.90
971;DHT22;28939;45.540;-122.632;2022-07-29T09:42:54;23.00;99.90
971;DHT22;28939;45.540;-122.632;2022-07-29T09:45:30;22.90;99.90
971;DHT22;28939;45.540;-122.632;2022-07-29T09:48:13;22.90;99.90
971;DHT22;28939;45.540;-122.632;2022-07-29T09:50:46;22.90;99.90
971;DHT22;28939;45.540;-122.632;2022-07-29T09:53:31;22.80;99.90
971;DHT22;28939;45.540;-122.632;2022-07-29T09:56:04;22.90;99.90
971;DHT22;28939;45.540;-122.632;2022-07-29T09:58:36;22.90;99.90
971;DHT22;28939;45.540;-122.632;2022-07-29T10:01:07;22.90;99.90
971;DHT22;28939;45.540;-122.632;2022-07-29T10:03:51;22.80;99.90
971;DHT22;28939;45.540;-122.632;2022-07-29T10:06:22;22.80;99.90
971;DHT22;28939;45.540;-122.632;2022-07-29T10:08:53;22.80;99.90
971;DHT22;28939;45.540;-122.632;2022-07-29T10:11:26;22.70;99.90
971;DHT22;28939;45.540;-122.632;2022-07-29T10:14:16;22.70;99.90
971;DHT22;28939;45.540;-122.632;2022-07-29T10:16:47;22.70;99.90
971;DHT22;28939;45.540;-122.632;2022-07-29T10:19:18;22.60;99.90
971;DHT22;28939;45.540;-122.632;2022-07-29T10:21:49;22.70;99.90
971;DHT22;28939;45.540;-122.632;2022-07-29T10:24:25;22.60;99.90
971;DHT22;28939;45.540;-122.632;2022-07-29T10:26:59;22.50;99.90
971;DHT22;28939;45.540;-122.632;2022-07-29T10:29:31;22.50;99.90
971;DHT22;28939;45.540;-122.632;2022-07-29T10:32:19;22.50;99.90
971;DHT22;28939;45.540;-122.632;2022-07-29T10:35:05;22.40;99.90
971;DHT22;28939;45.540;-122.632;2022-07-29T10:37:49;22.40;99.90
971;DHT22;28939;45.540;-122.632;2022-07-29T10:40:29;22.30;99.90
971;DHT22;28939;45.540;-122.632;2022-07-29T10:43:28;22.30;99.90
971;DHT22;28939;45.540;-122.632;2022-07-29T10:46:01;22.30;99.90
971;DHT22;28939;45.540;-122.632;2022-07-29T10:48:34;22.20;99.90
971;DHT22;28939;45.540;-122.632;2022-07-29T10:51:08;22.20;99.90
971;DHT22;28939;45.540;-122.632;2022-07-29T10:53:50;22.20;99.90
971;DHT22;28939;45.540;-122.632;2022-07-29T10:56:25;22.20;99.90
971;DHT22;28939;45.540;-122.632;2022-07-29T10:59:26;22.20;99.90
971;DHT22;28939;45.540;-122.632;2022-07-29T11:02:44;22.20;99.90
971;DHT22;28939;45.540;-122.632;2022-07-29T11:05:18;22.10;99.90
971;DHT22;28939;45.540;-122.632;2022-07-29T11:08:18;22.10;99.90
971;DHT22;28939;45.540;-122.632;2022-07-29T11:14:04;22.00;99.90
971;DHT22;28939;45.540;-122.632;2022-07-29T11:17:03;22.00;99.90
971;DHT22;28939;45.540;-122.632;2022-07-29T11:19:40;21.90;99.90
971;DHT22;28939;45.540;-122.632;2022-07-29T11:22:32;21.90;99.90
971;DHT22;28939;45.540;-122.632;2022-07-29T11:25:16;21.80;99.90
971;DHT22;28939;45.540;-122.632;2022-07-29T11:28:12;21.80;99.90
971;DHT22;28939;45.540;-122.632;2022-07-29T11:30:51;21.90;99.90
971;DHT22;28939;45.540;-122.632;2022-07-29T11:33:31;21.80;99.90
971;DHT22;28939;45.540;-122.632;2022-07-29T11:36:22;21.80;99.90
971;DHT22;28939;45.540;-122.632;2022-07-29T11:39:25;21.70;99.90
971;DHT22;28939;45.540;-122.632;2022-07-29T11:42:37;21.70;99.90
971;DHT22;28939;45.540;-122.632;2022-07-29T11:45:12;21.70;99.90
971;DHT22;28939;45.540;-122.632;2022-07-29T11:48:04;21.70;99.90
971;DHT22;28939;45.540;-122.632;2022-07-29T11:50:57;21.70;99.90
971;DHT22;28939;45.540;-122.632;2022-07-29T11:53:27;21.60;99.90
971;DHT22;28939;45.540;-122.632;2022-07-29T11:56:00;21.60;99.90
971;DHT22;28939;45.540;-122.632;2022-07-29T11:58:31;21.60;99.90
971;DHT22;28939;45.540;-122.632;2022-07-29T12:01:04;21.60;99.90
971;DHT22;28939;45.540;-122.632;2022-07-29T12:03:35;21.50;99.90
971;DHT22;28939;45.540;-122.632;2022-07-29T12:06:14;21.50;99.90
971;DHT22;28939;45.540;-122.632;2022-07-29T12:08:47;21.40;99.90
971;DHT22;28939;45.540;-122.632;2022-07-29T12:11:19;21.40;99.90
971;DHT22;28939;45.540;-122.632;2022-07-29T12:13:51;21.40;99.90
971;DHT22;28939;45.540;-122.632;2022-07-29T12:16:22;21.30;99.90
971;DHT22;28939;45.540;-122.632;2022-07-29T12:19:00;21.40;99.90
971;DHT22;28939;45.540;-122.632;2022-07-29T12:21:45;21.30;99.90
971;DHT22;28939;45.540;-122.632;2022-07-29T12:24:24;21.30;99.90
971;DHT22;28939;45.540;-122.632;2022-07-29T12:26:57;21.20;99.90
971;DHT22;28939;45.540;-122.632;2022-07-29T12:29:29;21.20;99.90
971;DHT22;28939;45.540;-122.632;2022-07-29T12:32:03;21.20;99.90
971;DHT22;28939;45.540;-122.632;2022-07-29T12:34:46;21.10;99.90
971;DHT22;28939;45.540;-122.632;2022-07-29T12:37:19;21.00;99.90
971;DHT22;28939;45.540;-122.632;2022-07-29T12:40:09;21.00;99.90
971;DHT22;28939;45.540;-122.632;2022-07-29T12:42:41;21.00;99.90
971;DHT22;28939;45.540;-122.632;2022-07-29T12:45:12;21.00;99.90
971;DHT22;28939;45.540;-122.632;2022-07-29T12:47:54;21.00;99.90
971;DHT22;28939;45.540;-122.632;2022-07-29T12:50:25;21.00;99.90
971;DHT22;28939;45.540;-122.632;2022-07-29T12:53:08;21.00;99.90
971;DHT22;28939;45.540;-122.632;2022-07-29T12:55:43;21.00;99.90
971;DHT22;28939;45.540;-122.632;2022-07-29T12:58:30;20.90;99.90
971;DHT22;28939;45.540;-122.632;2022-07-29T13:01:06;20.90;99.90
971;DHT22;28939;45.540;-122.632;2022-07-29T13:03:49;20.80;99.90
971;DHT22;28939;45.540;-122.632;2022-07-29T13:06:36;20.80;99.90
971;DHT22;28939;45.540;-122.632;2022-07-29T13:09:13;20.90;99.90
971;DHT22;28939;45.540;-122.632;2022-07-29T13:11:45;20.90;99.90
971;DHT22;28939;45.540;-122.632;2022-07-29T13:14:31;20.90;99.90
971;DHT22;28939;45.540;-122.632;2022-07-29T13:17:05;20.80;99.90
971;DHT22;28939;45.540;-122.632;2022-07-29T13:19:38;20.80;99.90
971;DHT22;28939;45.540;-122.632;2022-07-29T13:22:09;20.90;99.90
971;DHT22;28939;45.540;-122.632;2022-07-29T13:24:49;20.90;99.90
971;DHT22;28939;45.540;-122.632;2022-07-29T13:27:21;21.00;99.90
971;DHT22;28939;45.540;-122.632;2022-07-29T13:29:53;21.00;99.90
971;DHT22;28939;45.540;-122.632;2022-07-29T13:32:25;20.90;99.90
971;DHT22;28939;45.540;-122.632;2022-07-29T13:34:56;20.90;99.90
971;DHT22;28939;45.540;-122.632;2022-07-29T13:37:32;21.00;99.90
971;DHT22;28939;45.540;-122.632;2022-07-29T13:40:06;20.80;99.90
971;DHT22;28939;45.540;-122.632;2022-07-29T13:42:37;20.80;99.90
971;DHT22;28939;45.540;-122.632;2022-07-29T13:45:09;20.90;99.90
971;DHT22;28939;45.540;-122.632;2022-07-29T13:47:40;20.90;99.90
971;DHT22;28939;45.540;-122.632;2022-07-29T13:50:16;20.80;99.90
971;DHT22;28939;45.540;-122.632;2022-07-29T13:52:47;20.90;99.90
971;DHT22;28939;45.540;-122.632;2022-07-29T13:55:20;21.00;99.90
971;DHT22;28939;45.540;-122.632;2022-07-29T13:57:51;21.00;99.90
971;DHT22;28939;45.540;-122.632;2022-07-29T14:00:22;21.00;99.90
971;DHT22;28939;45.540;-122.632;2022-07-29T14:02:54;21.10;99.90
971;DHT22;28939;45.540;-122.632;2022-07-29T14:05:25;21.20;99.90
971;DHT22;28939;45.540;-122.632;2022-07-29T14:07:56;21.20;99.90
971;DHT22;28939;45.540;-122.632;2022-07-29T14:10:28;21.20;99.90
971;DHT22;28939;45.540;-122.632;2022-07-29T14:12:59;21.20;99.90
971;DHT22;28939;45.540;-122.632;2022-07-29T14:15:30;21.20;99.90
971;DHT22;28939;45.540;-122.632;2022-07-29T14:18:06;21.30;99.90
971;DHT22;28939;45.540;-122.632;2022-07-29T14:20:37;21.40;99.90
971;DHT22;28939;45.540;-122.632;2022-07-29T14:23:07;21.50;99.90
971;DHT22;28939;45.540;-122.632;2022-07-29T14:25:42;21.60;99.90
971;DHT22;28939;45.540;-122.632;2022-07-29T14:28:16;21.60;99.90
971;DHT22;28939;45.540;-122.632;2022-07-29T14:30:47;21.80;99.90
971;DHT22;28939;45.540;-122.632;2022-07-29T14:33:17;22.00;99.90
971;DHT22;28939;45.540;-122.632;2022-07-29T14:35:48;22.00;99.90
971;DHT22;28939;45.540;-122.632;2022-07-29T14:38:19;22.70;99.90
971;DHT22;28939;45.540;-122.632;2022-07-29T14:40:55;24.80;99.90
971;DHT22;28939;45.540;-122.632;2022-07-29T14:43:26;27.10;99.90
971;DHT22;28939;45.540;-122.632;2022-07-29T14:45:56;28.90;98.40
971;DHT22;28939;45.540;-122.632;2022-07-29T14:48:34;30.30;94.50
971;DHT22;28939;45.540;-122.632;2022-07-29T14:51:05;31.50;90.90
971;DHT22;28939;45.540;-122.632;2022-07-29T14:53:36;32.20;89.40
971;DHT22;28939;45.540;-122.632;2022-07-29T14:56:08;32.80;82.90
971;DHT22;28939;45.540;-122.632;2022-07-29T14:58:59;32.60;83.20
971;DHT22;28939;45.540;-122.632;2022-07-29T15:01:30;32.90;80.50
971;DHT22;28939;45.540;-122.632;2022-07-29T15:04:01;33.70;77.50
971;DHT22;28939;45.540;-122.632;2022-07-29T15:06:32;34.20;75.40
971;DHT22;28939;45.540;-122.632;2022-07-29T15:09:03;34.80;71.60
971;DHT22;28939;45.540;-122.632;2022-07-29T15:11:35;35.30;68.80
971;DHT22;28939;45.540;-122.632;2022-07-29T15:14:06;35.60;67.40
971;DHT22;28939;45.540;-122.632;2022-07-29T15:16:37;35.90;65.20
971;DHT22;28939;45.540;-122.632;2022-07-29T15:19:11;36.10;64.60
971;DHT22;28939;45.540;-122.632;2022-07-29T15:21:41;35.70;64.00
971;DHT22;28939;45.540;-122.632;2022-07-29T15:24:26;36.20;63.00
971;DHT22;28939;45.540;-122.632;2022-07-29T15:26:59;36.60;61.90
971;DHT22;28939;45.540;-122.632;2022-07-29T15:29:29;36.90;60.90
971;DHT22;28939;45.540;-122.632;2022-07-29T15:32:00;36.90;59.70
971;DHT22;28939;45.540;-122.632;2022-07-29T15:34:31;37.60;58.10
971;DHT22;28939;45.540;-122.632;2022-07-29T15:37:02;37.10;58.70
971;DHT22;28939;45.540;-122.632;2022-07-29T15:39:33;37.20;58.60
971;DHT22;28939;45.540;-122.632;2022-07-29T15:42:06;37.30;57.10
971;DHT22;28939;45.540;-122.632;2022-07-29T15:44:36;37.10;57.30
971;DHT22;28939;45.540;-122.632;2022-07-29T15:47:07;36.60;59.40
971;DHT22;28939;45.540;-122.632;2022-07-29T15:49:39;37.00;58.50
971;DHT22;28939;45.540;-122.632;2022-07-29T15:52:17;37.20;57.60
971;DHT22;28939;45.540;-122.632;2022-07-29T15:54:53;37.70;57.60
971;DHT22;28939;45.540;-122.632;2022-07-29T15:57:26;37.20;58.20
971;DHT22;28939;45.540;-122.632;2022-07-29T15:59:57;37.70;56.70
971;DHT22;28939;45.540;-122.632;2022-07-29T16:02:27;37.70;57.50
971;DHT22;28939;45.540;-122.632;2022-07-29T16:04:59;38.10;56.10
971;DHT22;28939;45.540;-122.632;2022-07-29T16:07:30;38.50;54.60